Mc Nary, Texas
Current Conditions -  °F | °C
As of 2:42 PM on Monday 20 Oct 2014 (Local Time) from MMCS Reporting Station
Scattered Clouds Scattered Clouds  
Wind Chill: 73°   Ceiling: Unl
Heat Index: 73°   Visibility: 10mi
Dew Point: 54°   Wind: 14mph
Humidity: 50%   Direction: 90°E
Pressure: 29.99"   Gusts: NA
Location:  31.5192°N, 105.683°W
Report Text: MMCS 202042Z 09012KT 10SM SCT040TCU 23/12 A2999 RMK SLP070 57038 904 8/203 CBS VC
Loading
Personal Weather Stations






























Interactive Weather Map
Tropical Storm Tracking
New forecast layout! Learn more

10-Day Weather Forecast

Advertisements
Track Severe Weather on mobile